createdAt,value
2023-04-23T00:08:21.204Z,93.03
2023-04-23T00:23:11.793Z,95.60
2023-04-23T00:38:02.973Z,96.94
2023-04-23T00:52:56.309Z,98.59
2023-04-23T01:07:49.345Z,98.84
2023-04-23T01:22:40.767Z,98.81
2023-04-23T01:37:32.566Z,97.97
2023-04-23T01:52:25.301Z,98.51
2023-04-23T02:07:17.528Z,98.41
2023-04-23T02:22:09.820Z,99.02
2023-04-23T02:37:02.368Z,98.50
2023-04-23T02:51:54.903Z,98.26
2023-04-23T03:09:20.187Z,98.18
2023-04-23T03:11:46.856Z,97.86
2023-04-23T03:40:56.652Z,99.24
2023-04-23T04:10:41.460Z,99.31
2023-04-23T04:25:32.637Z,99.03
2023-04-23T04:40:24.204Z,100.00
2023-04-23T04:55:16.317Z,100.00
2023-04-23T05:25:16.849Z,100.00
2023-04-23T07:39:56.919Z,84.05
2023-04-23T07:54:50.301Z,78.99
2023-04-23T09:09:16.691Z,66.73
2023-04-23T09:24:11.885Z,64.10
2023-04-23T09:39:03.745Z,61.77
2023-04-23T09:53:56.727Z,59.14
2023-04-23T10:08:49.656Z,57.04
2023-04-23T10:23:42.576Z,53.88
2023-04-23T10:38:35.233Z,53.59
2023-04-23T10:53:27.101Z,53.72
2023-04-23T11:08:20.251Z,51.96
2023-04-23T11:23:11.486Z,50.95
2023-04-23T11:38:03.849Z,49.98
2023-04-23T11:52:57.361Z,49.94
2023-04-23T12:07:49.335Z,48.72
2023-04-23T12:22:40.199Z,45.51
2023-04-23T12:37:32.771Z,44.84
2023-04-23T12:52:25.279Z,42.06
2023-04-23T13:07:17.898Z,42.90
2023-04-23T13:22:11.887Z,39.95
2023-04-23T13:37:05.998Z,38.25
2023-04-23T13:51:59.466Z,38.00
2023-04-23T14:06:50.706Z,38.16
2023-04-23T14:21:42.816Z,39.25
2023-04-23T14:36:34.561Z,39.29
2023-04-23T14:51:27.901Z,38.77
2023-04-23T15:36:03.133Z,40.50
2023-04-23T15:50:48.588Z,63.45
2023-04-23T16:05:35.418Z,72.79
2023-04-23T16:50:10.407Z,77.08
2023-04-23T17:51:05.009Z,74.60
2023-04-23T18:06:04.560Z,74.76
2023-04-23T18:20:56.401Z,74.59
2023-04-23T18:35:49.024Z,78.55
2023-04-23T18:50:42.879Z,81.15
2023-04-23T19:05:34.338Z,84.16
2023-04-23T19:20:24.230Z,85.55
2023-04-23T19:35:15.079Z,86.47
2023-04-23T19:50:07.400Z,85.64
2023-04-23T20:04:59.128Z,87.04
2023-04-23T20:19:49.806Z,85.79
2023-04-23T20:34:40.349Z,82.53
2023-04-23T20:49:31.626Z,81.21
2023-04-23T21:04:24.165Z,79.62
2023-04-23T21:34:22.901Z,76.34
2023-04-23T21:49:13.057Z,75.66
2023-04-23T22:04:13.852Z,76.08
2023-04-23T22:19:04.421Z,76.17
2023-04-23T22:33:56.516Z,76.77
2023-04-23T22:48:49.943Z,76.79
2023-04-23T23:03:39.811Z,77.03
2023-04-23T23:18:31.666Z,77.49
2023-04-23T23:33:23.768Z,77.31
2023-04-23T23:48:14.330Z,76.64
